createdAt,value
2019-05-14T00:01:08.081Z,96.20
2019-05-14T00:03:48.749Z,96.30
2019-05-14T00:06:31.160Z,96.70
2019-05-14T00:09:12.314Z,97.40
2019-05-14T00:11:53.411Z,96.30
2019-05-14T00:14:39.560Z,96.60
2019-05-14T00:17:16.629Z,97.80
2019-05-14T00:20:07.349Z,97.90
2019-05-14T00:22:41.650Z,97.50
2019-05-14T00:25:22.791Z,97.00
2019-05-14T00:28:03.735Z,97.00
2019-05-14T00:30:44.759Z,96.00
2019-05-14T00:33:25.112Z,98.30
2019-05-14T00:36:05.637Z,97.10
2019-05-14T00:38:46.619Z,96.20
2019-05-14T00:41:27.528Z,99.30
2019-05-14T00:44:08.554Z,97.40
2019-05-14T00:46:51.452Z,97.60
2019-05-14T00:49:32.031Z,96.70
2019-05-14T00:52:13.176Z,97.10
2019-05-14T00:54:53.439Z,97.50
2019-05-14T00:57:33.761Z,97.60
2019-05-14T01:00:14.508Z,98.80
2019-05-14T01:02:55.068Z,97.50
2019-05-14T01:05:35.927Z,98.10
2019-05-14T01:08:17.183Z,98.20
2019-05-14T01:10:58.007Z,97.90
2019-05-14T01:13:38.494Z,98.80
2019-05-14T01:16:18.931Z,98.60
2019-05-14T01:19:01.851Z,98.40
2019-05-14T01:21:42.665Z,98.80
2019-05-14T01:24:23.692Z,98.70
2019-05-14T01:27:04.116Z,99.10
2019-05-14T01:29:44.778Z,99.00
2019-05-14T01:32:25.439Z,99.90
2019-05-14T01:35:06.154Z,99.30
2019-05-14T01:37:46.495Z,99.20
2019-05-14T01:40:27.362Z,99.80
2019-05-14T01:43:08.078Z,99.90
2019-05-14T01:45:49.439Z,99.90
2019-05-14T01:48:31.330Z,99.90
2019-05-14T01:51:12.367Z,99.90
2019-05-14T01:53:52.979Z,99.90
2019-05-14T01:56:33.725Z,99.90
2019-05-14T01:59:14.083Z,99.90
2019-05-14T02:01:54.504Z,99.90
2019-05-14T02:04:35.234Z,99.90
2019-05-14T02:07:16.220Z,99.90
2019-05-14T02:09:56.612Z,99.90
2019-05-14T02:12:37.353Z,99.90
2019-05-14T02:15:18.016Z,99.90
2019-05-14T02:17:58.391Z,99.90
2019-05-14T02:20:41.327Z,99.90
2019-05-14T02:23:22.766Z,99.90
2019-05-14T02:33:09.259Z,99.90
2019-05-14T02:35:50.281Z,99.90
2019-05-14T02:38:31.068Z,99.90
2019-05-14T02:41:11.910Z,99.90
2019-05-14T02:43:52.909Z,99.90
2019-05-14T02:46:33.660Z,99.90
2019-05-14T02:49:14.269Z,99.90
2019-05-14T02:51:54.883Z,99.90
2019-05-14T02:54:35.906Z,99.90
2019-05-14T02:57:19.721Z,99.90
2019-05-14T03:00:02.381Z,99.90
2019-05-14T03:02:42.755Z,99.90
